sensor_id;sensor_type;location;lat;lon;timestamp;P1;durP1;ratioP1;P2;durP2;ratioP2
7440;SDS011;29616;51.950;8.572;2022-09-12T00:01:26;49.92;;;15.55;;
7440;SDS011;29616;51.950;8.572;2022-09-12T00:03:56;57.88;;;17.00;;
7440;SDS011;29616;51.950;8.572;2022-09-12T00:06:28;57.15;;;17.45;;
7440;SDS011;29616;51.950;8.572;2022-09-12T00:08:58;56.20;;;16.88;;
7440;SDS011;29616;51.950;8.572;2022-09-12T00:11:30;64.03;;;16.98;;
7440;SDS011;29616;51.950;8.572;2022-09-12T00:14:01;57.92;;;17.77;;
7440;SDS011;29616;51.950;8.572;2022-09-12T00:16:31;56.10;;;16.95;;
7440;SDS011;29616;51.950;8.572;2022-09-12T00:19:03;64.90;;;19.40;;
7440;SDS011;29616;51.950;8.572;2022-09-12T00:21:33;59.88;;;17.67;;
7440;SDS011;29616;51.950;8.572;2022-09-12T00:24:03;55.90;;;17.55;;
7440;SDS011;29616;51.950;8.572;2022-09-12T00:26:31;54.78;;;16.15;;
7440;SDS011;29616;51.950;8.572;2022-09-12T00:29:00;68.72;;;19.52;;
7440;SDS011;29616;51.950;8.572;2022-09-12T00:31:28;70.28;;;18.10;;
7440;SDS011;29616;51.950;8.572;2022-09-12T00:33:57;60.47;;;17.52;;
7440;SDS011;29616;51.950;8.572;2022-09-12T00:36:28;62.38;;;18.45;;
7440;SDS011;29616;51.950;8.572;2022-09-12T00:38:56;59.45;;;17.95;;
7440;SDS011;29616;51.950;8.572;2022-09-12T00:41:26;58.42;;;17.65;;
7440;SDS011;29616;51.950;8.572;2022-09-12T00:43:57;61.95;;;18.13;;
7440;SDS011;29616;51.950;8.572;2022-09-12T00:46:29;67.00;;;18.87;;
7440;SDS011;29616;51.950;8.572;2022-09-12T00:49:07;67.68;;;18.05;;
7440;SDS011;29616;51.950;8.572;2022-09-12T00:51:44;67.60;;;19.00;;
7440;SDS011;29616;51.950;8.572;2022-09-12T00:54:18;69.45;;;18.73;;
7440;SDS011;29616;51.950;8.572;2022-09-12T00:56:49;71.15;;;19.48;;
7440;SDS011;29616;51.950;8.572;2022-09-12T00:59:24;76.45;;;20.80;;
7440;SDS011;29616;51.950;8.572;2022-09-12T01:01:58;79.80;;;20.40;;
7440;SDS011;29616;51.950;8.572;2022-09-12T01:04:27;67.30;;;18.10;;
7440;SDS011;29616;51.950;8.572;2022-09-12T01:06:57;61.70;;;17.95;;
7440;SDS011;29616;51.950;8.572;2022-09-12T01:09:26;69.90;;;18.73;;
7440;SDS011;29616;51.950;8.572;2022-09-12T01:11:54;76.05;;;20.10;;
7440;SDS011;29616;51.950;8.572;2022-09-12T01:14:23;69.82;;;19.52;;
7440;SDS011;29616;51.950;8.572;2022-09-12T01:16:51;70.88;;;17.90;;
7440;SDS011;29616;51.950;8.572;2022-09-12T01:22:33;69.50;;;17.75;;
7440;SDS011;29616;51.950;8.572;2022-09-12T01:25:22;57.35;;;17.05;;
7440;SDS011;29616;51.950;8.572;2022-09-12T01:28:01;71.50;;;19.02;;
7440;SDS011;29616;51.950;8.572;2022-09-12T01:30:54;70.20;;;17.92;;
7440;SDS011;29616;51.950;8.572;2022-09-12T01:33:36;62.28;;;16.90;;
7440;SDS011;29616;51.950;8.572;2022-09-12T01:36:28;66.22;;;17.92;;
7440;SDS011;29616;51.950;8.572;2022-09-12T01:39:05;60.88;;;15.80;;
7440;SDS011;29616;51.950;8.572;2022-09-12T01:41:48;66.93;;;17.55;;
7440;SDS011;29616;51.950;8.572;2022-09-12T01:44:24;69.85;;;18.15;;
7440;SDS011;29616;51.950;8.572;2022-09-12T01:47:04;71.80;;;17.17;;
7440;SDS011;29616;51.950;8.572;2022-09-12T01:49:39;71.53;;;18.20;;
7440;SDS011;29616;51.950;8.572;2022-09-12T01:52:16;68.18;;;18.55;;
7440;SDS011;29616;51.950;8.572;2022-09-12T01:54:52;71.40;;;17.42;;
7440;SDS011;29616;51.950;8.572;2022-09-12T01:57:26;76.20;;;18.70;;
7440;SDS011;29616;51.950;8.572;2022-09-12T02:00:00;74.03;;;17.77;;
7440;SDS011;29616;51.950;8.572;2022-09-12T02:02:40;70.13;;;17.52;;
7440;SDS011;29616;51.950;8.572;2022-09-12T02:05:16;65.63;;;17.55;;
7440;SDS011;29616;51.950;8.572;2022-09-12T02:07:52;66.55;;;16.83;;
7440;SDS011;29616;51.950;8.572;2022-09-12T02:10:28;64.50;;;17.02;;
7440;SDS011;29616;51.950;8.572;2022-09-12T02:12:59;70.47;;;17.85;;
7440;SDS011;29616;51.950;8.572;2022-09-12T02:15:35;82.55;;;17.52;;
7440;SDS011;29616;51.950;8.572;2022-09-12T02:18:09;71.20;;;17.77;;
7440;SDS011;29616;51.950;8.572;2022-09-12T02:20:44;65.82;;;17.17;;
7440;SDS011;29616;51.950;8.572;2022-09-12T02:23:16;61.85;;;16.63;;
7440;SDS011;29616;51.950;8.572;2022-09-12T02:25:50;69.72;;;17.42;;
7440;SDS011;29616;51.950;8.572;2022-09-12T02:28:23;72.78;;;18.83;;
7440;SDS011;29616;51.950;8.572;2022-09-12T02:30:58;78.53;;;18.20;;
7440;SDS011;29616;51.950;8.572;2022-09-12T02:33:41;72.85;;;17.90;;
7440;SDS011;29616;51.950;8.572;2022-09-12T02:36:21;74.57;;;18.00;;
7440;SDS011;29616;51.950;8.572;2022-09-12T02:38:59;63.97;;;16.42;;
7440;SDS011;29616;51.950;8.572;2022-09-12T02:41:28;76.53;;;16.52;;
7440;SDS011;29616;51.950;8.572;2022-09-12T02:43:56;64.65;;;16.65;;
7440;SDS011;29616;51.950;8.572;2022-09-12T02:46:25;74.45;;;17.05;;
7440;SDS011;29616;51.950;8.572;2022-09-12T02:49:01;68.20;;;16.42;;
7440;SDS011;29616;51.950;8.572;2022-09-12T02:51:29;69.72;;;18.35;;
7440;SDS011;29616;51.950;8.572;2022-09-12T02:53:58;68.80;;;17.52;;
7440;SDS011;29616;51.950;8.572;2022-09-12T02:56:27;70.65;;;18.88;;
7440;SDS011;29616;51.950;8.572;2022-09-12T02:58:58;68.00;;;16.02;;
7440;SDS011;29616;51.950;8.572;2022-09-12T03:01:34;74.28;;;17.63;;
7440;SDS011;29616;51.950;8.572;2022-09-12T03:04:34;72.65;;;17.80;;
7440;SDS011;29616;51.950;8.572;2022-09-12T03:07:23;69.80;;;17.05;;
7440;SDS011;29616;51.950;8.572;2022-09-12T03:10:09;75.95;;;18.67;;
7440;SDS011;29616;51.950;8.572;2022-09-12T03:12:50;70.43;;;18.15;;
7440;SDS011;29616;51.950;8.572;2022-09-12T03:15:34;68.30;;;17.75;;
7440;SDS011;29616;51.950;8.572;2022-09-12T03:18:22;81.82;;;17.92;;
7440;SDS011;29616;51.950;8.572;2022-09-12T03:21:07;70.53;;;18.20;;
7440;SDS011;29616;51.950;8.572;2022-09-12T03:23:49;68.47;;;17.08;;
7440;SDS011;29616;51.950;8.572;2022-09-12T03:26:33;66.63;;;16.65;;
7440;SDS011;29616;51.950;8.572;2022-09-12T03:29:06;64.43;;;17.25;;
7440;SDS011;29616;51.950;8.572;2022-09-12T03:31:36;69.15;;;17.00;;
7440;SDS011;29616;51.950;8.572;2022-09-12T03:34:14;60.83;;;15.50;;
7440;SDS011;29616;51.950;8.572;2022-09-12T03:36:43;64.65;;;17.00;;
7440;SDS011;29616;51.950;8.572;2022-09-12T03:39:11;66.38;;;17.10;;
7440;SDS011;29616;51.950;8.572;2022-09-12T03:41:39;64.65;;;15.93;;
7440;SDS011;29616;51.950;8.572;2022-09-12T03:44:07;68.45;;;15.70;;
7440;SDS011;29616;51.950;8.572;2022-09-12T03:46:36;69.05;;;19.05;;
7440;SDS011;29616;51.950;8.572;2022-09-12T03:49:04;71.53;;;17.15;;
7440;SDS011;29616;51.950;8.572;2022-09-12T03:51:32;71.28;;;17.50;;
7440;SDS011;29616;51.950;8.572;2022-09-12T03:54:01;59.90;;;16.70;;
7440;SDS011;29616;51.950;8.572;2022-09-12T03:56:30;69.65;;;17.35;;
7440;SDS011;29616;51.950;8.572;2022-09-12T03:58:58;61.42;;;16.95;;
7440;SDS011;29616;51.950;8.572;2022-09-12T04:01:26;65.30;;;16.17;;
7440;SDS011;29616;51.950;8.572;2022-09-12T04:03:55;76.82;;;16.88;;
7440;SDS011;29616;51.950;8.572;2022-09-12T04:06:23;67.13;;;16.10;;
7440;SDS011;29616;51.950;8.572;2022-09-12T04:08:51;69.28;;;17.85;;
7440;SDS011;29616;51.950;8.572;2022-09-12T04:11:22;74.10;;;17.35;;
7440;SDS011;29616;51.950;8.572;2022-09-12T04:13:50;57.45;;;16.02;;
7440;SDS011;29616;51.950;8.572;2022-09-12T04:16:19;64.47;;;17.48;;
7440;SDS011;29616;51.950;8.572;2022-09-12T04:18:47;61.78;;;16.60;;
7440;SDS011;29616;51.950;8.572;2022-09-12T04:21:16;71.15;;;17.83;;
7440;SDS011;29616;51.950;8.572;2022-09-12T04:23:47;65.53;;;17.23;;
7440;SDS011;29616;51.950;8.572;2022-09-12T04:26:15;72.07;;;17.42;;
7440;SDS011;29616;51.950;8.572;2022-09-12T04:28:46;79.82;;;18.63;;
7440;SDS011;29616;51.950;8.572;2022-09-12T04:31:15;66.47;;;18.02;;
7440;SDS011;29616;51.950;8.572;2022-09-12T04:33:45;64.78;;;16.90;;
7440;SDS011;29616;51.950;8.572;2022-09-12T04:36:15;69.40;;;16.98;;
7440;SDS011;29616;51.950;8.572;2022-09-12T04:38:44;61.03;;;17.05;;
7440;SDS011;29616;51.950;8.572;2022-09-12T04:41:14;63.33;;;16.88;;
7440;SDS011;29616;51.950;8.572;2022-09-12T04:43:45;69.80;;;17.63;;
7440;SDS011;29616;51.950;8.572;2022-09-12T04:46:18;60.88;;;17.85;;
7440;SDS011;29616;51.950;8.572;2022-09-12T04:48:47;64.25;;;16.73;;
7440;SDS011;29616;51.950;8.572;2022-09-12T04:51:23;59.58;;;17.08;;
7440;SDS011;29616;51.950;8.572;2022-09-12T04:53:54;63.90;;;17.05;;
7440;SDS011;29616;51.950;8.572;2022-09-12T04:56:24;61.80;;;17.25;;
7440;SDS011;29616;51.950;8.572;2022-09-12T04:58:56;61.10;;;18.27;;
7440;SDS011;29616;51.950;8.572;2022-09-12T05:01:26;66.85;;;18.05;;
7440;SDS011;29616;51.950;8.572;2022-09-12T05:03:56;63.22;;;17.45;;
7440;SDS011;29616;51.950;8.572;2022-09-12T05:06:26;58.50;;;17.92;;
7440;SDS011;29616;51.950;8.572;2022-09-12T05:08:58;68.85;;;20.88;;
7440;SDS011;29616;51.950;8.572;2022-09-12T05:11:27;69.28;;;20.33;;
7440;SDS011;29616;51.950;8.572;2022-09-12T05:14:19;71.85;;;19.73;;
7440;SDS011;29616;51.950;8.572;2022-09-12T05:16:47;72.43;;;20.13;;
7440;SDS011;29616;51.950;8.572;2022-09-12T05:19:15;71.97;;;19.73;;
7440;SDS011;29616;51.950;8.572;2022-09-12T05:21:43;72.13;;;20.02;;
7440;SDS011;29616;51.950;8.572;2022-09-12T05:24:11;75.80;;;18.55;;
7440;SDS011;29616;51.950;8.572;2022-09-12T05:26:40;66.55;;;17.85;;
7440;SDS011;29616;51.950;8.572;2022-09-12T05:29:08;72.10;;;19.73;;
7440;SDS011;29616;51.950;8.572;2022-09-12T05:31:39;63.17;;;18.63;;
7440;SDS011;29616;51.950;8.572;2022-09-12T05:34:08;65.85;;;19.45;;
7440;SDS011;29616;51.950;8.572;2022-09-12T05:36:36;69.78;;;20.52;;
7440;SDS011;29616;51.950;8.572;2022-09-12T05:39:05;76.63;;;23.08;;
7440;SDS011;29616;51.950;8.572;2022-09-12T05:41:33;78.90;;;21.80;;
7440;SDS011;29616;51.950;8.572;2022-09-12T05:44:02;74.35;;;20.80;;
7440;SDS011;29616;51.950;8.572;2022-09-12T05:46:35;73.00;;;21.13;;
7440;SDS011;29616;51.950;8.572;2022-09-12T05:49:07;67.18;;;19.35;;
7440;SDS011;29616;51.950;8.572;2022-09-12T05:51:39;70.35;;;20.48;;
7440;SDS011;29616;51.950;8.572;2022-09-12T05:54:09;63.47;;;20.55;;
7440;SDS011;29616;51.950;8.572;2022-09-12T05:56:40;72.00;;;21.70;;
7440;SDS011;29616;51.950;8.572;2022-09-12T05:59:11;83.75;;;23.73;;
7440;SDS011;29616;51.950;8.572;2022-09-12T06:01:42;84.53;;;24.50;;
7440;SDS011;29616;51.950;8.572;2022-09-12T06:04:12;78.97;;;25.42;;
7440;SDS011;29616;51.950;8.572;2022-09-12T06:06:41;75.13;;;24.08;;
7440;SDS011;29616;51.950;8.572;2022-09-12T06:09:11;81.93;;;24.13;;
7440;SDS011;29616;51.950;8.572;2022-09-12T06:11:40;81.28;;;24.73;;
7440;SDS011;29616;51.950;8.572;2022-09-12T06:14:10;74.95;;;24.50;;
7440;SDS011;29616;51.950;8.572;2022-09-12T06:16:40;83.03;;;25.55;;
7440;SDS011;29616;51.950;8.572;2022-09-12T06:19:13;81.72;;;25.30;;
7440;SDS011;29616;51.950;8.572;2022-09-12T06:21:43;83.05;;;24.30;;
7440;SDS011;29616;51.950;8.572;2022-09-12T06:24:13;78.93;;;24.10;;
7440;SDS011;29616;51.950;8.572;2022-09-12T06:26:42;74.50;;;22.10;;
7440;SDS011;29616;51.950;8.572;2022-09-12T06:29:12;65.20;;;20.55;;
7440;SDS011;29616;51.950;8.572;2022-09-12T06:31:41;68.68;;;22.33;;
7440;SDS011;29616;51.950;8.572;2022-09-12T06:34:11;63.13;;;19.92;;
7440;SDS011;29616;51.950;8.572;2022-09-12T06:36:42;68.75;;;21.20;;
7440;SDS011;29616;51.950;8.572;2022-09-12T06:39:13;66.68;;;20.42;;
7440;SDS011;29616;51.950;8.572;2022-09-12T06:41:42;62.05;;;19.33;;
7440;SDS011;29616;51.950;8.572;2022-09-12T06:44:11;61.08;;;19.52;;
7440;SDS011;29616;51.950;8.572;2022-09-12T06:46:42;55.90;;;17.23;;
7440;SDS011;29616;51.950;8.572;2022-09-12T06:49:10;54.40;;;17.67;;
7440;SDS011;29616;51.950;8.572;2022-09-12T06:51:40;48.85;;;16.05;;
7440;SDS011;29616;51.950;8.572;2022-09-12T06:54:10;50.28;;;17.05;;
7440;SDS011;29616;51.950;8.572;2022-09-12T06:56:41;43.85;;;15.57;;
7440;SDS011;29616;51.950;8.572;2022-09-12T06:59:10;42.60;;;15.48;;
7440;SDS011;29616;51.950;8.572;2022-09-12T07:01:39;37.63;;;14.77;;
7440;SDS011;29616;51.950;8.572;2022-09-12T07:04:08;35.15;;;13.65;;
7440;SDS011;29616;51.950;8.572;2022-09-12T07:06:37;33.28;;;13.80;;
7440;SDS011;29616;51.950;8.572;2022-09-12T07:09:10;28.48;;;13.30;;
7440;SDS011;29616;51.950;8.572;2022-09-12T07:11:42;27.30;;;12.85;;
7440;SDS011;29616;51.950;8.572;2022-09-12T07:14:12;27.42;;;12.10;;
7440;SDS011;29616;51.950;8.572;2022-09-12T07:16:41;23.17;;;11.32;;
7440;SDS011;29616;51.950;8.572;2022-09-12T07:19:10;21.23;;;11.38;;
7440;SDS011;29616;51.950;8.572;2022-09-12T07:21:39;22.38;;;11.05;;
7440;SDS011;29616;51.950;8.572;2022-09-12T07:24:08;22.08;;;11.68;;
7440;SDS011;29616;51.950;8.572;2022-09-12T07:26:37;19.13;;;10.18;;
7440;SDS011;29616;51.950;8.572;2022-09-12T07:29:08;17.60;;;9.95;;
7440;SDS011;29616;51.950;8.572;2022-09-12T07:32:01;15.63;;;9.38;;
7440;SDS011;29616;51.950;8.572;2022-09-12T07:34:31;15.75;;;9.68;;
7440;SDS011;29616;51.950;8.572;2022-09-12T07:37:00;17.27;;;9.73;;
7440;SDS011;29616;51.950;8.572;2022-09-12T07:39:29;16.27;;;9.10;;
7440;SDS011;29616;51.950;8.572;2022-09-12T07:41:57;15.45;;;8.80;;
7440;SDS011;29616;51.950;8.572;2022-09-12T07:44:26;16.42;;;9.45;;
7440;SDS011;29616;51.950;8.572;2022-09-12T07:46:54;14.02;;;8.95;;
7440;SDS011;29616;51.950;8.572;2022-09-12T07:49:22;14.98;;;8.55;;
7440;SDS011;29616;51.950;8.572;2022-09-12T07:51:50;12.60;;;8.27;;
7440;SDS011;29616;51.950;8.572;2022-09-12T07:54:20;13.63;;;9.35;;
7440;SDS011;29616;51.950;8.572;2022-09-12T07:56:49;13.23;;;8.77;;
7440;SDS011;29616;51.950;8.572;2022-09-12T07:59:17;16.27;;;8.77;;
7440;SDS011;29616;51.950;8.572;2022-09-12T08:02:08;11.75;;;7.88;;
7440;SDS011;29616;51.950;8.572;2022-09-12T08:04:42;12.77;;;8.35;;
7440;SDS011;29616;51.950;8.572;2022-09-12T08:07:12;9.07;;;6.63;;
7440;SDS011;29616;51.950;8.572;2022-09-12T08:09:41;9.07;;;6.40;;
7440;SDS011;29616;51.950;8.572;2022-09-12T08:12:09;9.73;;;6.03;;
7440;SDS011;29616;51.950;8.572;2022-09-12T08:14:37;7.43;;;5.40;;
7440;SDS011;29616;51.950;8.572;2022-09-12T08:17:06;9.85;;;5.53;;
7440;SDS011;29616;51.950;8.572;2022-09-12T08:19:34;8.77;;;5.40;;
7440;SDS011;29616;51.950;8.572;2022-09-12T08:22:02;7.47;;;5.32;;
7440;SDS011;29616;51.950;8.572;2022-09-12T08:24:30;7.82;;;5.45;;
7440;SDS011;29616;51.950;8.572;2022-09-12T08:27:00;9.20;;;5.20;;
7440;SDS011;29616;51.950;8.572;2022-09-12T08:29:28;8.23;;;5.53;;
7440;SDS011;29616;51.950;8.572;2022-09-12T08:31:56;6.78;;;5.18;;
7440;SDS011;29616;51.950;8.572;2022-09-12T08:34:24;6.82;;;4.82;;
7440;SDS011;29616;51.950;8.572;2022-09-12T08:36:53;6.82;;;4.97;;
7440;SDS011;29616;51.950;8.572;2022-09-12T08:39:21;7.85;;;5.45;;
7440;SDS011;29616;51.950;8.572;2022-09-12T08:41:54;6.53;;;5.03;;
7440;SDS011;29616;51.950;8.572;2022-09-12T08:44:42;7.20;;;5.70;;
7440;SDS011;29616;51.950;8.572;2022-09-12T08:47:25;8.63;;;5.00;;
7440;SDS011;29616;51.950;8.572;2022-09-12T08:50:00;6.05;;;4.82;;
7440;SDS011;29616;51.950;8.572;2022-09-12T08:52:38;5.78;;;4.53;;
7440;SDS011;29616;51.950;8.572;2022-09-12T08:55:21;10.27;;;4.97;;
7440;SDS011;29616;51.950;8.572;2022-09-12T08:58:06;6.80;;;5.05;;
7440;SDS011;29616;51.950;8.572;2022-09-12T09:00:45;7.72;;;4.88;;
7440;SDS011;29616;51.950;8.572;2022-09-12T09:06:22;6.13;;;3.90;;
7440;SDS011;29616;51.950;8.572;2022-09-12T09:09:09;7.57;;;4.82;;
7440;SDS011;29616;51.950;8.572;2022-09-12T09:11:49;5.55;;;4.38;;
7440;SDS011;29616;51.950;8.572;2022-09-12T09:14:38;5.57;;;4.13;;
7440;SDS011;29616;51.950;8.572;2022-09-12T09:17:19;7.68;;;4.32;;
7440;SDS011;29616;51.950;8.572;2022-09-12T09:19:53;5.65;;;4.50;;
7440;SDS011;29616;51.950;8.572;2022-09-12T09:22:37;6.05;;;4.50;;
7440;SDS011;29616;51.950;8.572;2022-09-12T09:25:12;5.22;;;4.40;;
7440;SDS011;29616;51.950;8.572;2022-09-12T09:27:50;5.82;;;4.25;;
7440;SDS011;29616;51.950;8.572;2022-09-12T09:30:26;8.90;;;4.32;;
7440;SDS011;29616;51.950;8.572;2022-09-12T09:32:56;7.78;;;4.57;;
7440;SDS011;29616;51.950;8.572;2022-09-12T09:35:30;6.03;;;4.13;;
7440;SDS011;29616;51.950;8.572;2022-09-12T09:40:51;7.20;;;4.47;;
7440;SDS011;29616;51.950;8.572;2022-09-12T09:43:33;5.95;;;4.57;;
7440;SDS011;29616;51.950;8.572;2022-09-12T09:46:03;5.90;;;4.32;;
7440;SDS011;29616;51.950;8.572;2022-09-12T09:48:35;4.40;;;3.72;;
7440;SDS011;29616;51.950;8.572;2022-09-12T09:51:07;6.60;;;4.40;;
7440;SDS011;29616;51.950;8.572;2022-09-12T09:53:37;6.25;;;4.22;;
7440;SDS011;29616;51.950;8.572;2022-09-12T09:56:14;8.63;;;4.68;;
7440;SDS011;29616;51.950;8.572;2022-09-12T09:58:55;6.55;;;4.57;;
7440;SDS011;29616;51.950;8.572;2022-09-12T10:01:23;5.88;;;4.07;;
7440;SDS011;29616;51.950;8.572;2022-09-12T10:03:54;7.45;;;4.00;;
7440;SDS011;29616;51.950;8.572;2022-09-12T10:06:24;8.18;;;4.90;;
7440;SDS011;29616;51.950;8.572;2022-09-12T10:09:05;6.28;;;4.30;;
7440;SDS011;29616;51.950;8.572;2022-09-12T10:11:48;5.70;;;4.07;;
7440;SDS011;29616;51.950;8.572;2022-09-12T10:20:01;8.05;;;4.90;;
7440;SDS011;29616;51.950;8.572;2022-09-12T10:22:47;7.72;;;4.78;;
7440;SDS011;29616;51.950;8.572;2022-09-12T10:25:15;7.85;;;5.07;;
7440;SDS011;29616;51.950;8.572;2022-09-12T10:27:51;7.05;;;4.85;;
7440;SDS011;29616;51.950;8.572;2022-09-12T10:30:22;5.72;;;4.78;;
7440;SDS011;29616;51.950;8.572;2022-09-12T10:32:55;7.18;;;4.93;;
7440;SDS011;29616;51.950;8.572;2022-09-12T10:35:42;9.32;;;4.80;;
7440;SDS011;29616;51.950;8.572;2022-09-12T10:38:16;7.68;;;5.63;;
7440;SDS011;29616;51.950;8.572;2022-09-12T10:40:54;7.47;;;4.90;;
7440;SDS011;29616;51.950;8.572;2022-09-12T10:43:26;8.88;;;5.25;;
7440;SDS011;29616;51.950;8.572;2022-09-12T10:48:50;7.32;;;5.82;;
7440;SDS011;29616;51.950;8.572;2022-09-12T10:51:41;11.85;;;6.30;;
7440;SDS011;29616;51.950;8.572;2022-09-12T10:54:09;7.70;;;5.15;;
7440;SDS011;29616;51.950;8.572;2022-09-12T10:56:41;8.07;;;6.07;;
7440;SDS011;29616;51.950;8.572;2022-09-12T10:59:21;9.13;;;5.90;;
7440;SDS011;29616;51.950;8.572;2022-09-12T11:02:00;9.07;;;6.05;;
7440;SDS011;29616;51.950;8.572;2022-09-12T11:04:44;9.57;;;6.10;;
7440;SDS011;29616;51.950;8.572;2022-09-12T11:07:29;8.98;;;4.82;;
7440;SDS011;29616;51.950;8.572;2022-09-12T11:10:13;8.63;;;5.70;;
7440;SDS011;29616;51.950;8.572;2022-09-12T11:13:02;10.38;;;5.78;;
7440;SDS011;29616;51.950;8.572;2022-09-12T11:15:51;9.52;;;5.85;;
7440;SDS011;29616;51.950;8.572;2022-09-12T11:18:46;8.25;;;5.35;;
7440;SDS011;29616;51.950;8.572;2022-09-12T11:21:39;8.48;;;4.93;;
7440;SDS011;29616;51.950;8.572;2022-09-12T11:24:27;6.72;;;5.47;;
7440;SDS011;29616;51.950;8.572;2022-09-12T11:29:53;9.25;;;5.28;;
7440;SDS011;29616;51.950;8.572;2022-09-12T11:32:36;6.88;;;5.35;;
7440;SDS011;29616;51.950;8.572;2022-09-12T11:35:34;7.53;;;5.07;;
7440;SDS011;29616;51.950;8.572;2022-09-12T11:41:10;10.75;;;5.60;;
7440;SDS011;29616;51.950;8.572;2022-09-12T11:43:45;6.90;;;5.22;;
7440;SDS011;29616;51.950;8.572;2022-09-12T11:46:20;10.80;;;5.65;;
7440;SDS011;29616;51.950;8.572;2022-09-12T11:48:56;8.88;;;6.25;;
7440;SDS011;29616;51.950;8.572;2022-09-12T11:51:32;10.93;;;5.80;;
7440;SDS011;29616;51.950;8.572;2022-09-12T11:54:10;9.05;;;6.10;;
7440;SDS011;29616;51.950;8.572;2022-09-12T11:56:48;7.03;;;5.13;;
7440;SDS011;29616;51.950;8.572;2022-09-12T11:59:28;8.38;;;5.70;;
7440;SDS011;29616;51.950;8.572;2022-09-12T12:04:39;7.13;;;5.53;;
7440;SDS011;29616;51.950;8.572;2022-09-12T12:07:15;8.23;;;5.85;;
7440;SDS011;29616;51.950;8.572;2022-09-12T12:09:46;8.32;;;5.68;;
7440;SDS011;29616;51.950;8.572;2022-09-12T12:12:20;9.10;;;5.18;;
7440;SDS011;29616;51.950;8.572;2022-09-12T12:14:52;11.35;;;4.25;;
7440;SDS011;29616;51.950;8.572;2022-09-12T12:17:22;6.55;;;4.35;;
7440;SDS011;29616;51.950;8.572;2022-09-12T12:19:58;7.00;;;4.22;;
7440;SDS011;29616;51.950;8.572;2022-09-12T12:22:34;5.82;;;4.63;;
7440;SDS011;29616;51.950;8.572;2022-09-12T12:25:06;7.32;;;5.22;;
7440;SDS011;29616;51.950;8.572;2022-09-12T12:27:57;8.32;;;5.82;;
7440;SDS011;29616;51.950;8.572;2022-09-12T12:36:37;6.70;;;4.60;;
7440;SDS011;29616;51.950;8.572;2022-09-12T12:46:01;5.78;;;4.43;;
7440;SDS011;29616;51.950;8.572;2022-09-12T12:51:45;9.32;;;4.95;;
7440;SDS011;29616;51.950;8.572;2022-09-12T12:57:23;6.25;;;5.07;;
7440;SDS011;29616;51.950;8.572;2022-09-12T13:00:06;7.10;;;4.78;;
7440;SDS011;29616;51.950;8.572;2022-09-12T13:02:56;6.00;;;4.43;;
7440;SDS011;29616;51.950;8.572;2022-09-12T13:05:28;5.90;;;4.40;;
7440;SDS011;29616;51.950;8.572;2022-09-12T13:08:05;5.88;;;4.43;;
7440;SDS011;29616;51.950;8.572;2022-09-12T13:10:36;7.50;;;5.07;;
7440;SDS011;29616;51.950;8.572;2022-09-12T13:13:16;10.25;;;5.20;;
7440;SDS011;29616;51.950;8.572;2022-09-12T13:15:54;6.60;;;4.95;;
7440;SDS011;29616;51.950;8.572;2022-09-12T13:18:23;7.05;;;5.05;;
7440;SDS011;29616;51.950;8.572;2022-09-12T13:20:56;5.03;;;4.38;;
7440;SDS011;29616;51.950;8.572;2022-09-12T13:23:34;7.35;;;4.60;;
7440;SDS011;29616;51.950;8.572;2022-09-12T13:26:03;5.95;;;4.25;;
7440;SDS011;29616;51.950;8.572;2022-09-12T13:28:38;6.10;;;4.20;;
7440;SDS011;29616;51.950;8.572;2022-09-12T13:31:10;6.90;;;4.40;;
7440;SDS011;29616;51.950;8.572;2022-09-12T13:33:49;6.55;;;4.25;;
7440;SDS011;29616;51.950;8.572;2022-09-12T13:36:27;7.28;;;5.22;;
7440;SDS011;29616;51.950;8.572;2022-09-12T13:39:18;8.07;;;4.50;;
7440;SDS011;29616;51.950;8.572;2022-09-12T13:41:54;7.32;;;5.00;;
7440;SDS011;29616;51.950;8.572;2022-09-12T13:45:04;5.35;;;4.60;;
7440;SDS011;29616;51.950;8.572;2022-09-12T13:47:41;8.50;;;5.00;;
7440;SDS011;29616;51.950;8.572;2022-09-12T13:50:13;10.02;;;4.70;;
7440;SDS011;29616;51.950;8.572;2022-09-12T13:52:48;6.78;;;4.20;;
7440;SDS011;29616;51.950;8.572;2022-09-12T13:55:24;5.20;;;3.92;;
7440;SDS011;29616;51.950;8.572;2022-09-12T13:57:57;5.25;;;3.60;;
7440;SDS011;29616;51.950;8.572;2022-09-12T14:02:58;6.85;;;4.65;;
7440;SDS011;29616;51.950;8.572;2022-09-12T14:05:46;4.53;;;4.13;;
7440;SDS011;29616;51.950;8.572;2022-09-12T14:08:23;4.43;;;4.03;;
7440;SDS011;29616;51.950;8.572;2022-09-12T14:10:52;6.65;;;4.85;;
7440;SDS011;29616;51.950;8.572;2022-09-12T14:13:21;5.85;;;4.47;;
7440;SDS011;29616;51.950;8.572;2022-09-12T14:15:53;6.80;;;4.78;;
7440;SDS011;29616;51.950;8.572;2022-09-12T14:18:25;6.03;;;4.47;;
7440;SDS011;29616;51.950;8.572;2022-09-12T14:20:57;5.75;;;4.32;;
7440;SDS011;29616;51.950;8.572;2022-09-12T14:23:36;5.93;;;4.43;;
7440;SDS011;29616;51.950;8.572;2022-09-12T14:26:09;7.00;;;4.07;;
7440;SDS011;29616;51.950;8.572;2022-09-12T14:28:39;4.53;;;4.13;;
7440;SDS011;29616;51.950;8.572;2022-09-12T14:31:19;6.00;;;4.10;;
7440;SDS011;29616;51.950;8.572;2022-09-12T14:33:52;4.80;;;4.00;;
7440;SDS011;29616;51.950;8.572;2022-09-12T14:36:23;6.38;;;3.83;;
7440;SDS011;29616;51.950;8.572;2022-09-12T14:38:54;7.07;;;4.28;;
7440;SDS011;29616;51.950;8.572;2022-09-12T14:41:27;6.95;;;4.65;;
7440;SDS011;29616;51.950;8.572;2022-09-12T14:43:59;6.38;;;4.20;;
7440;SDS011;29616;51.950;8.572;2022-09-12T14:46:31;6.43;;;4.10;;
7440;SDS011;29616;51.950;8.572;2022-09-12T14:49:06;6.35;;;4.30;;
7440;SDS011;29616;51.950;8.572;2022-09-12T14:51:47;4.75;;;4.25;;
7440;SDS011;29616;51.950;8.572;2022-09-12T14:54:35;5.35;;;4.00;;
7440;SDS011;29616;51.950;8.572;2022-09-12T14:57:28;7.25;;;3.83;;
7440;SDS011;29616;51.950;8.572;2022-09-12T15:00:17;4.22;;;3.50;;
7440;SDS011;29616;51.950;8.572;2022-09-12T15:02:49;5.82;;;3.90;;
7440;SDS011;29616;51.950;8.572;2022-09-12T15:05:22;5.30;;;4.32;;
7440;SDS011;29616;51.950;8.572;2022-09-12T15:07:54;7.07;;;4.47;;
7440;SDS011;29616;51.950;8.572;2022-09-12T15:10:27;4.95;;;3.80;;
7440;SDS011;29616;51.950;8.572;2022-09-12T15:16:06;4.45;;;4.05;;
7440;SDS011;29616;51.950;8.572;2022-09-12T15:18:37;5.32;;;4.40;;
7440;SDS011;29616;51.950;8.572;2022-09-12T15:21:09;9.82;;;4.07;;
7440;SDS011;29616;51.950;8.572;2022-09-12T15:23:43;4.43;;;4.03;;
7440;SDS011;29616;51.950;8.572;2022-09-12T15:26:13;5.72;;;3.92;;
7440;SDS011;29616;51.950;8.572;2022-09-12T15:28:44;6.75;;;3.97;;
7440;SDS011;29616;51.950;8.572;2022-09-12T15:31:17;4.63;;;3.75;;
7440;SDS011;29616;51.950;8.572;2022-09-12T15:33:51;6.55;;;3.97;;
7440;SDS011;29616;51.950;8.572;2022-09-12T15:36:23;8.30;;;3.70;;
7440;SDS011;29616;51.950;8.572;2022-09-12T15:38:51;4.85;;;3.63;;
7440;SDS011;29616;51.950;8.572;2022-09-12T15:41:20;5.43;;;3.80;;
7440;SDS011;29616;51.950;8.572;2022-09-12T15:43:58;4.13;;;3.38;;
7440;SDS011;29616;51.950;8.572;2022-09-12T15:46:27;4.95;;;3.80;;
7440;SDS011;29616;51.950;8.572;2022-09-12T15:48:56;7.30;;;4.13;;
7440;SDS011;29616;51.950;8.572;2022-09-12T15:51:25;5.95;;;4.13;;
7440;SDS011;29616;51.950;8.572;2022-09-12T15:53:53;5.45;;;4.28;;
7440;SDS011;29616;51.950;8.572;2022-09-12T15:56:21;4.78;;;4.30;;
7440;SDS011;29616;51.950;8.572;2022-09-12T15:58:50;5.22;;;3.72;;
7440;SDS011;29616;51.950;8.572;2022-09-12T16:01:26;4.60;;;3.95;;
7440;SDS011;29616;51.950;8.572;2022-09-12T16:03:56;4.70;;;3.70;;
7440;SDS011;29616;51.950;8.572;2022-09-12T16:06:25;5.05;;;3.90;;
7440;SDS011;29616;51.950;8.572;2022-09-12T16:09:01;5.03;;;3.85;;
7440;SDS011;29616;51.950;8.572;2022-09-12T16:11:30;4.20;;;3.35;;
7440;SDS011;29616;51.950;8.572;2022-09-12T16:13:58;4.70;;;3.70;;
7440;SDS011;29616;51.950;8.572;2022-09-12T16:16:27;4.80;;;3.90;;
7440;SDS011;29616;51.950;8.572;2022-09-12T16:18:55;4.38;;;3.90;;